createdAt,value
2019-03-26T00:01:01.508Z,97497.56
2019-03-26T00:03:33.453Z,97498.87
2019-03-26T00:06:05.388Z,97508.35
2019-03-26T00:08:37.233Z,97497.05
2019-03-26T00:11:09.319Z,97504.91
2019-03-26T00:13:41.325Z,97506.20
2019-03-26T00:16:13.275Z,97510.14
2019-03-26T00:18:45.385Z,97517.99
2019-03-26T00:21:18.278Z,97522.58
2019-03-26T00:23:51.142Z,97516.83
2019-03-26T00:26:24.239Z,97521.27
2019-03-26T00:28:56.088Z,97525.84
2019-03-26T00:31:27.914Z,97533.20
2019-03-26T00:33:59.694Z,97537.63
2019-03-26T00:36:31.787Z,97547.76
2019-03-26T00:39:05.264Z,97548.92
2019-03-26T00:41:38.450Z,97552.34
2019-03-26T00:44:10.482Z,97549.91
2019-03-26T00:46:42.470Z,97553.48
2019-03-26T00:49:14.480Z,97555.47
2019-03-26T00:51:46.678Z,97551.98
2019-03-26T00:54:18.865Z,97550.70
2019-03-26T00:56:51.202Z,97552.49
2019-03-26T00:59:24.319Z,97545.80
2019-03-26T01:01:56.552Z,97545.16
2019-03-26T01:04:33.064Z,97554.63
2019-03-26T01:07:02.033Z,97562.48
2019-03-26T01:09:34.381Z,97563.80
2019-03-26T01:12:06.438Z,97572.13
2019-03-26T01:14:38.263Z,97570.02
2019-03-26T01:17:10.235Z,97565.38
2019-03-26T01:19:42.084Z,97570.45
2019-03-26T01:22:13.971Z,97574.69
2019-03-26T01:24:46.829Z,97577.83
2019-03-26T01:27:19.239Z,97576.20
2019-03-26T01:29:52.051Z,97577.66
2019-03-26T01:32:24.728Z,97581.42
2019-03-26T01:34:56.640Z,97585.98
2019-03-26T01:37:28.501Z,97587.30
2019-03-26T01:40:00.693Z,97578.62
2019-03-26T01:42:32.543Z,97569.13
2019-03-26T01:45:04.919Z,97575.83
2019-03-26T01:47:36.994Z,97581.41
2019-03-26T01:50:09.108Z,97577.30
2019-03-26T01:52:40.898Z,97570.77
2019-03-26T01:55:12.803Z,97571.75
2019-03-26T01:57:44.658Z,97576.49
2019-03-26T02:00:16.661Z,97583.51
2019-03-26T02:02:48.597Z,97582.36
2019-03-26T02:05:21.559Z,97580.72
2019-03-26T02:07:53.670Z,97583.15
2019-03-26T02:10:25.450Z,97584.32
2019-03-26T02:12:57.245Z,97591.05
2019-03-26T02:15:33.870Z,97586.45
2019-03-26T02:18:06.242Z,97592.68
2019-03-26T02:20:38.173Z,97595.14
2019-03-26T02:23:10.257Z,97601.20
2019-03-26T02:25:42.207Z,97607.37
2019-03-26T02:28:14.248Z,97607.06
2019-03-26T02:30:46.104Z,97606.89
2019-03-26T02:33:17.957Z,97605.59
2019-03-26T02:35:50.204Z,97607.86
2019-03-26T02:38:21.982Z,97610.47
2019-03-26T02:40:53.953Z,97606.16
2019-03-26T02:43:26.008Z,97612.69
2019-03-26T02:45:57.891Z,97610.08
2019-03-26T02:48:29.944Z,97610.89
2019-03-26T02:51:01.818Z,97604.79
2019-03-26T02:53:33.777Z,97602.20
2019-03-26T02:56:05.769Z,97608.06
2019-03-26T02:58:37.613Z,97597.59
2019-03-26T03:01:09.729Z,97600.69
2019-03-26T03:03:41.743Z,97597.47
2019-03-26T03:06:14.073Z,97603.30
2019-03-26T03:08:45.920Z,97612.34
2019-03-26T03:11:17.727Z,97613.30
2019-03-26T03:13:49.700Z,97607.76
2019-03-26T03:16:21.530Z,97609.38
2019-03-26T03:18:53.412Z,97615.41
2019-03-26T03:21:26.551Z,97610.83
2019-03-26T03:23:58.346Z,97610.19
2019-03-26T03:26:30.226Z,97613.36
2019-03-26T03:29:01.994Z,97621.21
2019-03-26T03:31:33.785Z,97619.21
2019-03-26T03:34:05.630Z,97617.43
2019-03-26T03:36:37.667Z,97629.21
2019-03-26T03:39:09.781Z,97627.24
2019-03-26T03:41:41.544Z,97637.50
2019-03-26T03:44:13.386Z,97638.67
2019-03-26T03:46:46.649Z,97643.61
2019-03-26T03:49:22.731Z,97639.04
2019-03-26T03:51:55.248Z,97637.86
2019-03-26T03:54:27.841Z,97639.53
2019-03-26T03:57:02.413Z,97643.45
2019-03-26T03:59:35.252Z,97653.87
2019-03-26T04:02:07.014Z,97660.73
2019-03-26T04:04:38.786Z,97652.63
2019-03-26T04:07:10.572Z,97654.94
2019-03-26T04:09:42.641Z,97659.79
2019-03-26T04:12:14.421Z,97667.63
2019-03-26T04:14:46.180Z,97665.00
2019-03-26T04:17:18.033Z,97665.53
2019-03-26T04:19:49.901Z,97668.64
2019-03-26T04:22:21.993Z,97677.16
2019-03-26T04:24:54.200Z,97675.86
2019-03-26T04:27:27.197Z,97672.56
2019-03-26T04:29:59.047Z,97677.63
2019-03-26T04:32:30.857Z,97677.48
2019-03-26T04:35:03.080Z,97676.48
2019-03-26T04:37:34.869Z,97684.48
2019-03-26T04:40:07.066Z,97682.39
2019-03-26T04:42:38.972Z,97686.33
2019-03-26T04:45:10.851Z,97682.39
2019-03-26T04:47:42.985Z,97689.73
2019-03-26T04:50:15.021Z,97686.17
2019-03-26T04:52:46.916Z,97691.75
2019-03-26T04:55:18.791Z,97683.37
2019-03-26T04:57:51.909Z,97682.06
2019-03-26T05:00:23.915Z,97678.34
2019-03-26T05:02:55.683Z,97685.53
2019-03-26T05:05:27.461Z,97687.66
2019-03-26T05:07:59.336Z,97683.91
2019-03-26T05:10:31.396Z,97688.34
2019-03-26T05:13:03.157Z,97694.00
2019-03-26T05:15:35.108Z,97686.42
2019-03-26T05:18:07.100Z,97684.61
2019-03-26T05:20:39.063Z,97689.83
2019-03-26T05:23:10.901Z,97690.55
2019-03-26T05:25:43.003Z,97692.33
2019-03-26T05:28:14.890Z,97695.89
2019-03-26T05:30:46.830Z,97701.79
2019-03-26T05:33:19.171Z,97699.00
2019-03-26T05:35:52.075Z,97709.44
2019-03-26T05:38:23.935Z,97711.56
2019-03-26T05:40:55.806Z,97717.95
2019-03-26T05:43:27.963Z,97724.09
2019-03-26T05:45:59.828Z,97722.78
2019-03-26T05:48:31.652Z,97727.22
2019-03-26T05:51:03.514Z,97720.44
2019-03-26T05:53:35.355Z,97728.30
2019-03-26T05:56:07.236Z,97724.03
2019-03-26T05:58:39.025Z,97728.20
2019-03-26T06:01:11.072Z,97726.05
2019-03-26T06:03:42.883Z,97729.36
2019-03-26T06:06:14.805Z,97728.05
2019-03-26T06:08:46.707Z,97734.77
2019-03-26T06:11:18.739Z,97738.32
2019-03-26T06:13:52.221Z,97745.56
2019-03-26T06:16:37.496Z,97740.16
2019-03-26T06:18:57.538Z,97739.84
2019-03-26T06:21:29.583Z,97748.03
2019-03-26T06:24:01.673Z,97746.89
2019-03-26T06:26:34.505Z,97749.67
2019-03-26T06:29:06.593Z,97754.89
2019-03-26T06:31:38.442Z,97748.20
2019-03-26T06:34:10.628Z,97751.30
2019-03-26T06:36:42.601Z,97754.43
2019-03-26T06:39:14.412Z,97752.29
2019-03-26T06:41:46.209Z,97756.73
2019-03-26T06:44:19.015Z,97762.91
2019-03-26T06:46:52.027Z,97766.84
2019-03-26T06:49:24.760Z,97770.80
2019-03-26T06:51:56.909Z,97768.04
2019-03-26T06:54:28.982Z,97773.30
2019-03-26T06:57:01.018Z,97777.57
2019-03-26T06:59:33.054Z,97778.50
2019-03-26T07:02:05.841Z,97787.98
2019-03-26T07:04:46.250Z,97782.73
2019-03-26T07:07:30.578Z,97795.77
2019-03-26T07:09:52.096Z,97793.86
2019-03-26T07:12:23.896Z,97796.78
2019-03-26T07:14:55.737Z,97790.25
2019-03-26T07:17:27.602Z,97786.61
2019-03-26T07:19:59.379Z,97787.94
2019-03-26T07:22:31.248Z,97794.17
2019-03-26T07:25:03.036Z,97792.55
2019-03-26T07:27:34.846Z,97783.56
2019-03-26T07:30:07.726Z,97780.31
2019-03-26T07:32:39.661Z,97787.98
2019-03-26T07:35:13.300Z,97780.66
2019-03-26T07:37:45.941Z,97783.92
2019-03-26T07:40:18.191Z,97787.69
2019-03-26T07:42:50.045Z,97801.80
2019-03-26T07:45:23.202Z,97807.19
2019-03-26T07:47:55.025Z,97814.59
2019-03-26T07:50:26.895Z,97815.61
2019-03-26T07:52:58.851Z,97812.31
2019-03-26T07:55:30.617Z,97807.75
2019-03-26T07:58:02.647Z,97817.25
2019-03-26T08:00:36.451Z,97821.81
2019-03-26T08:03:08.785Z,97817.40
2019-03-26T08:05:40.609Z,97812.64
2019-03-26T08:08:12.426Z,97813.63
2019-03-26T08:10:44.223Z,97812.86
2019-03-26T08:13:16.035Z,97813.94
2019-03-26T08:15:48.202Z,97815.92
2019-03-26T08:18:20.042Z,97808.41
2019-03-26T08:20:52.224Z,97812.52
2019-03-26T08:23:24.141Z,97810.56
2019-03-26T08:25:56.190Z,97815.33
2019-03-26T08:28:28.017Z,97814.02
2019-03-26T08:30:59.805Z,97812.87
2019-03-26T08:33:32.896Z,97809.73
2019-03-26T08:36:04.830Z,97807.95
2019-03-26T08:38:36.693Z,97809.89
2019-03-26T08:41:08.841Z,97807.11
2019-03-26T08:43:41.105Z,97815.97
2019-03-26T08:46:13.925Z,97821.37
2019-03-26T08:48:45.693Z,97820.22
2019-03-26T08:51:17.579Z,97827.94
2019-03-26T08:53:49.631Z,97833.69
2019-03-26T08:56:22.537Z,97837.78
2019-03-26T08:58:54.367Z,97843.51
2019-03-26T09:01:26.312Z,97847.44
2019-03-26T09:03:58.099Z,97845.97
2019-03-26T09:06:31.109Z,97843.51
2019-03-26T09:09:03.055Z,97843.51
2019-03-26T09:11:35.036Z,97845.48
2019-03-26T09:14:07.055Z,97850.06
2019-03-26T09:16:38.940Z,97850.73
2019-03-26T09:19:10.857Z,97847.44
2019-03-26T09:21:42.829Z,97851.53
2019-03-26T09:24:14.746Z,97849.41
2019-03-26T09:26:46.535Z,97847.28
2019-03-26T09:29:18.749Z,97840.56
2019-03-26T09:31:50.681Z,97837.61
2019-03-26T09:34:22.509Z,97850.38
2019-03-26T09:36:54.477Z,97850.72
2019-03-26T09:39:26.272Z,97853.19
2019-03-26T09:41:58.036Z,97858.73
2019-03-26T09:44:30.891Z,97861.83
2019-03-26T09:47:15.236Z,97856.72
2019-03-26T09:49:36.176Z,97859.32
2019-03-26T09:52:08.037Z,97864.38
2019-03-26T09:54:39.889Z,97867.29
2019-03-26T09:57:11.748Z,97869.89
2019-03-26T09:59:43.637Z,97873.16
2019-03-26T10:02:15.937Z,97875.16
2019-03-26T10:04:47.733Z,97880.86
2019-03-26T10:07:21.714Z,97881.71
2019-03-26T10:09:53.288Z,97883.44
2019-03-26T10:12:25.167Z,97870.31
2019-03-26T10:14:57.118Z,97878.06
2019-03-26T10:17:28.964Z,97886.39
2019-03-26T10:20:00.875Z,97885.11
2019-03-26T10:22:32.777Z,97874.30
2019-03-26T10:25:05.019Z,97878.54
2019-03-26T10:27:36.890Z,97883.47
2019-03-26T10:30:09.948Z,97880.36
2019-03-26T10:32:41.919Z,97876.20
2019-03-26T10:35:13.967Z,97876.19
2019-03-26T10:37:45.949Z,97875.22
2019-03-26T10:40:31.145Z,97868.45
2019-03-26T10:43:03.905Z,97870.77
2019-03-26T10:45:35.845Z,97861.17
2019-03-26T10:48:08.336Z,97865.45
2019-03-26T10:50:40.590Z,97862.70
2019-03-26T10:53:12.454Z,97863.95
2019-03-26T10:55:44.453Z,97852.56
2019-03-26T10:58:16.745Z,97855.88
2019-03-26T11:00:48.751Z,97863.09
2019-03-26T11:03:22.810Z,97860.97
2019-03-26T11:05:55.567Z,97859.31
2019-03-26T11:08:27.510Z,97861.72
2019-03-26T11:10:59.691Z,97853.73
2019-03-26T11:13:32.383Z,97854.12
2019-03-26T11:16:04.272Z,97854.29
2019-03-26T11:18:36.180Z,97848.98
2019-03-26T11:21:08.317Z,97849.64
2019-03-26T11:23:40.383Z,97851.10
2019-03-26T11:26:12.182Z,97847.38
2019-03-26T11:28:44.229Z,97843.63
2019-03-26T11:31:16.220Z,97846.13
2019-03-26T11:33:48.146Z,97835.86
2019-03-26T11:36:20.112Z,97840.66
2019-03-26T11:38:52.774Z,97835.20
2019-03-26T11:41:24.786Z,97826.73
2019-03-26T11:43:56.834Z,97832.09
2019-03-26T11:46:28.714Z,97834.02
2019-03-26T11:49:00.722Z,97836.35
2019-03-26T11:51:32.810Z,97828.12
2019-03-26T11:54:04.699Z,97830.94
2019-03-26T11:56:37.657Z,97832.03
2019-03-26T11:59:09.782Z,97820.91
2019-03-26T12:01:41.577Z,97821.20
2019-03-26T12:04:13.670Z,97827.35
2019-03-26T12:06:45.388Z,97822.38
2019-03-26T12:09:17.352Z,97828.75
2019-03-26T12:11:49.314Z,97824.20
2019-03-26T12:14:21.114Z,97825.03
2019-03-26T12:16:52.962Z,97828.58
2019-03-26T12:19:25.371Z,97825.20
2019-03-26T12:21:57.230Z,97828.29
2019-03-26T12:24:29.266Z,97831.55
2019-03-26T12:27:01.214Z,97823.95
2019-03-26T12:29:33.306Z,97821.52
2019-03-26T12:32:05.093Z,97819.84
2019-03-26T12:34:37.034Z,97819.94
2019-03-26T12:37:09.126Z,97815.75
2019-03-26T12:39:44.099Z,97818.17
2019-03-26T12:42:14.613Z,97816.17
2019-03-26T12:44:46.626Z,97809.88
2019-03-26T12:47:18.446Z,97807.22
2019-03-26T12:49:50.304Z,97800.08
2019-03-26T12:52:23.027Z,97805.05
2019-03-26T12:54:55.223Z,97798.59
2019-03-26T12:57:27.154Z,97800.00
2019-03-26T12:59:59.132Z,97802.20
2019-03-26T13:02:32.073Z,97800.34
2019-03-26T13:05:04.070Z,97799.84
2019-03-26T13:07:35.946Z,97793.44
2019-03-26T13:10:13.753Z,97796.34
2019-03-26T13:12:43.356Z,97796.42
2019-03-26T13:15:15.366Z,97798.19
2019-03-26T13:17:47.263Z,97798.37
2019-03-26T13:20:19.293Z,97793.83
2019-03-26T13:22:51.087Z,97793.63
2019-03-26T13:25:23.158Z,97792.86
2019-03-26T13:27:55.026Z,97781.50
2019-03-26T13:30:26.827Z,97783.39
2019-03-26T13:32:58.687Z,97779.17
2019-03-26T13:35:30.653Z,97782.50
2019-03-26T13:38:02.442Z,97779.97
2019-03-26T13:40:35.399Z,97777.60
2019-03-26T13:43:07.566Z,97771.87
2019-03-26T13:45:39.607Z,97767.66
2019-03-26T13:48:11.471Z,97764.09
2019-03-26T13:50:43.387Z,97761.44
2019-03-26T13:53:15.340Z,97757.95
2019-03-26T13:55:47.250Z,97752.61
2019-03-26T13:58:19.197Z,97754.96
2019-03-26T14:00:51.195Z,97751.09
2019-03-26T14:03:23.287Z,97747.09
2019-03-26T14:05:55.249Z,97747.15
2019-03-26T14:08:27.130Z,97739.73
2019-03-26T14:10:59.595Z,97739.91
2019-03-26T14:13:31.469Z,97739.66
2019-03-26T14:16:03.328Z,97735.39
2019-03-26T14:18:35.991Z,97734.83
2019-03-26T14:21:08.057Z,97740.61
2019-03-26T14:23:39.879Z,97736.08
2019-03-26T14:26:11.747Z,97729.49
2019-03-26T14:28:43.835Z,97734.66
2019-03-26T14:31:15.681Z,97736.31
2019-03-26T14:33:47.648Z,97724.60
2019-03-26T14:36:19.679Z,97724.73
2019-03-26T14:38:51.627Z,97730.23
2019-03-26T14:41:23.714Z,97730.77
2019-03-26T14:43:55.588Z,97726.41
2019-03-26T14:46:27.417Z,97724.02
2019-03-26T14:48:59.295Z,97728.46
2019-03-26T14:51:31.157Z,97724.19
2019-03-26T14:54:02.981Z,97724.45
2019-03-26T14:56:35.098Z,97725.53
2019-03-26T14:59:07.041Z,97728.63
2019-03-26T15:01:39.264Z,97728.10
2019-03-26T15:04:11.658Z,97726.04
2019-03-26T15:06:43.458Z,97732.27
2019-03-26T15:09:15.396Z,97738.34
2019-03-26T15:11:47.527Z,97742.55
2019-03-26T15:14:19.321Z,97741.28
2019-03-26T15:16:51.177Z,97742.03
2019-03-26T15:19:23.368Z,97742.22
2019-03-26T15:21:55.267Z,97742.27
2019-03-26T15:24:27.118Z,97744.66
2019-03-26T15:26:58.928Z,97744.45
2019-03-26T15:29:30.810Z,97741.25
2019-03-26T15:32:02.727Z,97737.94
2019-03-26T15:34:36.468Z,97731.98
2019-03-26T15:37:09.593Z,97737.63
2019-03-26T15:39:41.370Z,97736.98
2019-03-26T15:42:13.208Z,97730.32
2019-03-26T15:44:45.208Z,97743.45
2019-03-26T15:47:17.077Z,97744.42
2019-03-26T15:49:48.949Z,97755.03
2019-03-26T15:52:20.782Z,97762.50
2019-03-26T15:54:53.785Z,97762.81
2019-03-26T15:57:25.772Z,97754.45
2019-03-26T15:59:57.795Z,97754.71
2019-03-26T16:02:29.766Z,97758.91
2019-03-26T16:05:01.788Z,97755.80
2019-03-26T16:07:33.927Z,97753.56
2019-03-26T16:10:09.129Z,97751.77
2019-03-26T16:12:41.613Z,97766.73
2019-03-26T16:15:13.698Z,97752.77
2019-03-26T16:17:45.533Z,97755.27
2019-03-26T16:20:17.504Z,97757.28
2019-03-26T16:22:49.506Z,97765.08
2019-03-26T16:25:23.617Z,97761.09
2019-03-26T16:27:55.514Z,97767.67
2019-03-26T16:30:27.482Z,97762.77
2019-03-26T16:32:59.216Z,97766.61
2019-03-26T16:35:31.877Z,97769.55
2019-03-26T16:38:05.773Z,97777.63
2019-03-26T16:40:37.825Z,97781.16
2019-03-26T16:43:09.942Z,97779.39
2019-03-26T16:45:42.112Z,97774.17
2019-03-26T16:48:14.033Z,97776.93
2019-03-26T16:50:45.977Z,97776.17
2019-03-26T16:53:17.956Z,97775.75
2019-03-26T16:55:49.968Z,97784.78
2019-03-26T16:58:21.983Z,97786.42
2019-03-26T17:00:53.830Z,97785.50
2019-03-26T17:03:31.163Z,97786.85
2019-03-26T17:05:59.398Z,97784.53
2019-03-26T17:08:31.439Z,97786.02
2019-03-26T17:11:03.265Z,97782.42
2019-03-26T17:13:35.213Z,97789.37
2019-03-26T17:16:07.254Z,97792.77
2019-03-26T17:18:39.391Z,97791.48
2019-03-26T17:21:11.782Z,97791.50
2019-03-26T17:23:43.801Z,97792.90
2019-03-26T17:26:15.665Z,97799.84
2019-03-26T17:28:47.768Z,97800.33
2019-03-26T17:31:19.727Z,97794.90
2019-03-26T17:33:51.601Z,97801.16
2019-03-26T17:36:23.913Z,97796.81
2019-03-26T17:38:55.781Z,97794.05
2019-03-26T17:41:27.732Z,97797.27
2019-03-26T17:43:59.713Z,97806.26
2019-03-26T17:46:32.547Z,97814.02
2019-03-26T17:49:04.439Z,97817.33
2019-03-26T17:51:40.568Z,97813.61
2019-03-26T17:54:11.156Z,97814.20
2019-03-26T17:56:43.158Z,97811.03
2019-03-26T17:59:15.262Z,97816.03
2019-03-26T18:01:47.533Z,97817.18
2019-03-26T18:04:19.535Z,97819.83
2019-03-26T18:06:51.414Z,97820.13
2019-03-26T18:09:23.951Z,97816.69
2019-03-26T18:11:55.764Z,97816.08
2019-03-26T18:14:27.528Z,97826.44
2019-03-26T18:16:59.795Z,97827.23
2019-03-26T18:19:34.463Z,97829.83
2019-03-26T18:22:06.931Z,97832.59
2019-03-26T18:24:38.764Z,97832.95
2019-03-26T18:27:10.737Z,97827.88
2019-03-26T18:29:42.615Z,97830.38
2019-03-26T18:32:14.551Z,97829.25
2019-03-26T18:34:46.472Z,97827.58
2019-03-26T18:37:18.972Z,97825.14
2019-03-26T18:39:51.825Z,97829.39
2019-03-26T18:42:24.037Z,97831.05
2019-03-26T18:44:55.885Z,97837.28
2019-03-26T18:47:27.770Z,97836.30
2019-03-26T18:50:00.378Z,97836.13
2019-03-26T18:52:32.336Z,97833.50
2019-03-26T18:55:04.252Z,97840.06
2019-03-26T18:57:36.210Z,97842.41
2019-03-26T19:00:09.597Z,97843.34
2019-03-26T19:02:41.544Z,97852.45
2019-03-26T19:05:13.852Z,97848.22
2019-03-26T19:07:45.645Z,97850.52
2019-03-26T19:10:29.161Z,97836.55
2019-03-26T19:13:01.146Z,97844.15
2019-03-26T19:15:33.051Z,97847.25
2019-03-26T19:18:05.381Z,97852.02
2019-03-26T19:20:38.266Z,97853.00
2019-03-26T19:23:10.614Z,97842.48
2019-03-26T19:25:42.595Z,97839.55
2019-03-26T19:28:14.422Z,97846.77
2019-03-26T19:30:46.348Z,97850.41
2019-03-26T19:33:18.231Z,97849.72
2019-03-26T19:35:50.074Z,97846.78
2019-03-26T19:38:22.014Z,97845.47
2019-03-26T19:40:54.215Z,97840.08
2019-03-26T19:43:26.311Z,97848.08
2019-03-26T19:45:58.355Z,97842.16
2019-03-26T19:48:30.156Z,97845.31
2019-03-26T19:51:02.146Z,97849.25
2019-03-26T19:53:34.187Z,97849.06
2019-03-26T19:56:06.191Z,97848.26
2019-03-26T19:58:39.182Z,97847.59
2019-03-26T20:01:12.643Z,97850.56
2019-03-26T20:03:44.568Z,97850.20
2019-03-26T20:06:16.620Z,97853.50
2019-03-26T20:08:48.439Z,97852.36
2019-03-26T20:11:20.344Z,97849.72
2019-03-26T20:17:47.347Z,97852.35
2019-03-26T20:20:20.184Z,97859.55
2019-03-26T20:22:52.283Z,97861.20
2019-03-26T20:25:25.677Z,97851.36
2019-03-26T20:27:57.569Z,97855.61
2019-03-26T20:30:29.445Z,97855.62
2019-03-26T20:33:01.688Z,97863.84
2019-03-26T20:35:33.598Z,97862.53
2019-03-26T20:38:05.421Z,97862.38
2019-03-26T20:40:37.817Z,97859.75
2019-03-26T20:43:09.644Z,97854.98
2019-03-26T20:45:41.953Z,97853.36
2019-03-26T20:48:14.014Z,97856.94
2019-03-26T20:50:45.875Z,97854.83
2019-03-26T20:53:17.855Z,97862.86
2019-03-26T20:55:54.438Z,97861.38
2019-03-26T20:58:24.057Z,97855.97
2019-03-26T21:00:56.107Z,97862.18
2019-03-26T21:03:27.981Z,97864.80
2019-03-26T21:05:59.799Z,97856.77
2019-03-26T21:08:31.678Z,97871.20
2019-03-26T21:11:03.710Z,97862.02
2019-03-26T21:13:35.531Z,97865.64
2019-03-26T21:16:07.513Z,97869.09
2019-03-26T21:18:40.915Z,97864.80
2019-03-26T21:21:12.977Z,97872.35
2019-03-26T21:23:44.791Z,97868.58
2019-03-26T21:26:18.731Z,97872.84
2019-03-26T21:28:50.657Z,97875.30
2019-03-26T21:31:22.448Z,97874.66
2019-03-26T21:33:55.252Z,97884.83
2019-03-26T21:36:27.433Z,97884.98
2019-03-26T21:38:59.483Z,97888.39
2019-03-26T21:41:31.357Z,97886.78
2019-03-26T21:44:04.451Z,97890.39
2019-03-26T21:46:36.824Z,97888.41
2019-03-26T21:49:09.751Z,97878.06
2019-03-26T21:51:41.559Z,97885.77
2019-03-26T21:54:13.364Z,97882.36
2019-03-26T21:56:45.865Z,97884.83
2019-03-26T21:59:17.771Z,97882.20
2019-03-26T22:01:49.603Z,97882.84
2019-03-26T22:04:21.683Z,97891.39
2019-03-26T22:06:53.467Z,97894.33
2019-03-26T22:09:25.333Z,97896.95
2019-03-26T22:11:57.306Z,97894.97
2019-03-26T22:14:29.223Z,97902.83
2019-03-26T22:17:01.149Z,97907.75
2019-03-26T22:19:33.214Z,97901.02
2019-03-26T22:22:05.098Z,97900.89
2019-03-26T22:24:36.899Z,97895.95
2019-03-26T22:27:09.098Z,97901.04
2019-03-26T22:29:40.883Z,97895.48
2019-03-26T22:32:12.680Z,97895.95
2019-03-26T22:34:44.620Z,97894.01
2019-03-26T22:37:16.445Z,97901.21
2019-03-26T22:39:48.324Z,97892.67
2019-03-26T22:42:20.116Z,97896.25
2019-03-26T22:44:52.176Z,97891.84
2019-03-26T22:47:23.996Z,97892.51
2019-03-26T22:49:57.321Z,97894.80
2019-03-26T22:52:29.716Z,97892.69
2019-03-26T22:55:01.768Z,97896.27
2019-03-26T22:57:33.587Z,97892.00
2019-03-26T23:00:07.519Z,97886.91
2019-03-26T23:02:41.513Z,97889.37
2019-03-26T23:05:14.243Z,97887.05
2019-03-26T23:07:46.385Z,97898.55
2019-03-26T23:10:19.110Z,97890.50
2019-03-26T23:12:50.987Z,97896.22
2019-03-26T23:15:25.124Z,97898.03
2019-03-26T23:17:56.927Z,97887.39
2019-03-26T23:20:28.787Z,97894.12
2019-03-26T23:23:00.777Z,97892.31
2019-03-26T23:25:32.568Z,97897.55
2019-03-26T23:28:04.712Z,97901.33
2019-03-26T23:30:36.592Z,97902.63
2019-03-26T23:33:08.663Z,97902.11
2019-03-26T23:35:41.567Z,97898.20
2019-03-26T23:38:13.682Z,97891.16
2019-03-26T23:40:45.608Z,97890.36
2019-03-26T23:43:17.529Z,97891.66
2019-03-26T23:45:49.670Z,97899.84
2019-03-26T23:48:21.482Z,97893.30
2019-03-26T23:50:53.353Z,97893.29
2019-03-26T23:53:26.217Z,97890.36
2019-03-26T23:55:58.280Z,97891.00
2019-03-26T23:58:30.392Z,97883.13
